UPSVAC Airport Information Service

Dubai International Airport

ICAO: OMDB Country: United Arab Emirates
Latitude: 25.2528 Longitude: 55.3644
Latest Arrival : UPS1473 (KSDF-OMDB) Latest Departure : UPS1196 (OMDB-EDDK)


WX CaptureLIVE
Data provided by noaa.gov | Fetched at 21:18:19

METAR : OMDB 272100Z 30010KT 9999 SCT035 21/12 Q1015 NOSIG

TAF : OMDB 271700Z 2718/0100 27010KT 9999 FEW030 BECMG 2719/2721 20005KT BECMG 2806/2808 28010KT BECMG 2816/2818 10005KT


Runway Data for OMDB
Data provided by openaviationdata.com

Runway ID Mag Var Hdg Length Elevation Surface ILS Freq ILS Id ILS Slope
12L 1 119° 13143 ft 34 ft Asphalt 110.1 IDBL 3
12R 1 119° 14606 ft 34 ft Asphalt 109.5 IDBE 3
30L 1 299° 14606 ft 34 ft Asphalt 111.3 IDBW 3
30R 1 299° 13143 ft 34 ft Asphalt 110.9 IDBR 3

Dubai International Airport, United Arab Emirates
Use only for reference purposes



Not for navigational purposes.